createdAt,value
2018-05-13T14:43:27.176Z,26.19
2018-05-13T14:45:57.499Z,26.03
2018-05-13T14:48:26.881Z,25.94
2018-05-13T14:50:58.185Z,26.16
2018-05-13T14:53:31.891Z,26.17
2018-05-13T14:56:00.410Z,26.03
2018-05-13T14:58:28.535Z,26.03
2018-05-13T15:00:56.677Z,26.04
2018-05-13T15:03:24.899Z,25.89
2018-05-13T15:05:53.989Z,25.85
2018-05-13T15:08:22.140Z,25.85
2018-05-13T15:10:50.308Z,25.81
2018-05-13T15:13:18.474Z,25.67
2018-05-13T15:15:46.622Z,25.70
2018-05-13T15:18:14.762Z,25.64
2018-05-13T15:20:49.329Z,25.43
2018-05-13T15:23:17.618Z,25.50
2018-05-13T15:25:45.735Z,25.45
2018-05-13T15:28:13.898Z,25.54
2018-05-13T15:30:41.999Z,25.51
2018-05-13T15:33:10.115Z,25.53
2018-05-13T15:35:38.261Z,25.57
2018-05-13T15:38:06.362Z,25.47
2018-05-13T15:40:34.490Z,25.25
2018-05-13T15:43:02.760Z,25.32
2018-05-13T15:45:31.097Z,25.27
2018-05-13T15:47:59.374Z,25.36
2018-05-13T15:50:27.506Z,25.35
2018-05-13T15:52:55.623Z,25.28
2018-05-13T15:55:24.478Z,25.18
2018-05-13T15:57:52.669Z,25.24
2018-05-13T16:00:20.768Z,25.16
2018-05-13T16:02:48.909Z,25.10
2018-05-13T16:05:17.038Z,24.95
2018-05-13T16:07:45.254Z,24.93
2018-05-13T16:10:13.399Z,24.95
2018-05-13T16:12:41.523Z,24.87
2018-05-13T16:15:11.061Z,24.83
2018-05-13T16:17:39.191Z,24.97
2018-05-13T16:20:07.340Z,24.90
2018-05-13T16:22:35.479Z,24.80
2018-05-13T16:25:03.818Z,24.81
2018-05-13T16:27:31.976Z,24.71
2018-05-13T16:30:00.179Z,24.70
2018-05-13T16:35:44.578Z,24.58
2018-05-13T16:38:13.794Z,24.58
2018-05-13T16:40:46.512Z,24.55
2018-05-13T16:43:17.322Z,24.59
2018-05-13T16:45:49.261Z,24.60
2018-05-13T16:48:25.888Z,24.50
2018-05-13T16:51:01.614Z,24.51
2018-05-13T16:53:54.304Z,24.38
2018-05-13T16:56:28.342Z,24.35
2018-05-13T16:58:56.748Z,24.28
2018-05-13T17:01:24.931Z,24.21
2018-05-13T17:03:53.187Z,24.16
2018-05-13T17:06:21.571Z,24.06
2018-05-13T17:08:50.977Z,24.05
2018-05-13T17:11:19.166Z,24.01
2018-05-13T17:13:49.184Z,23.92
2018-05-13T17:16:18.503Z,23.83
2018-05-13T17:18:57.546Z,23.72
2018-05-13T17:21:27.851Z,23.61
2018-05-13T17:23:56.465Z,23.60
2018-05-13T17:26:26.284Z,23.56
2018-05-13T17:28:54.900Z,23.47
2018-05-13T17:31:24.578Z,23.41
2018-05-13T17:33:53.283Z,23.37
2018-05-13T17:36:22.160Z,23.27
2018-05-13T17:38:51.472Z,23.28
2018-05-13T17:41:20.084Z,23.22
2018-05-13T17:43:51.087Z,23.23
2018-05-13T17:46:19.810Z,23.17
2018-05-13T17:48:49.009Z,23.12
2018-05-13T17:51:17.213Z,23.12
2018-05-13T17:53:45.337Z,23.06
2018-05-13T17:56:13.546Z,22.91
2018-05-13T17:58:42.631Z,22.88
2018-05-13T18:01:10.825Z,22.82
2018-05-13T18:03:39.001Z,22.72
2018-05-13T18:06:07.188Z,22.80
2018-05-13T18:08:35.572Z,22.72
2018-05-13T18:11:03.722Z,22.70
2018-05-13T18:13:31.874Z,22.63
2018-05-13T18:16:00.007Z,22.58
2018-05-13T18:18:28.165Z,22.52
2018-05-13T18:20:56.567Z,22.47
2018-05-13T18:23:25.083Z,22.42
2018-05-13T18:25:53.294Z,22.30
2018-05-13T18:28:21.425Z,22.26
2018-05-13T18:30:49.562Z,22.27
2018-05-13T18:33:17.764Z,22.22
2018-05-13T18:35:45.960Z,22.24
2018-05-13T18:38:14.081Z,22.23
2018-05-13T18:40:42.272Z,22.25
2018-05-13T18:43:10.412Z,22.14
2018-05-13T18:45:38.555Z,22.03
2018-05-13T18:48:06.850Z,22.06
2018-05-13T18:50:34.969Z,21.89
2018-05-13T18:55:37.637Z,21.90
2018-05-13T18:58:05.773Z,21.86
2018-05-13T19:00:33.886Z,21.86
2018-05-13T19:03:02.074Z,21.81
2018-05-13T19:05:30.199Z,21.77
2018-05-13T19:07:58.314Z,21.81
2018-05-13T19:10:26.475Z,21.69
2018-05-13T19:12:54.671Z,21.69
2018-05-13T19:15:22.804Z,21.64
2018-05-13T19:17:51.379Z,21.69
2018-05-13T19:20:19.501Z,21.67
2018-05-13T19:22:47.635Z,21.67
2018-05-13T19:25:15.794Z,21.65
2018-05-13T19:27:43.913Z,21.58
2018-05-13T19:30:12.042Z,21.58
2018-05-13T19:32:40.198Z,21.56
2018-05-13T19:35:08.425Z,21.58
2018-05-13T19:37:36.553Z,21.57
2018-05-13T19:40:04.709Z,21.52
2018-05-13T19:42:32.883Z,21.40
2018-05-13T19:45:01.011Z,21.42
2018-05-13T19:47:29.664Z,21.38
2018-05-13T19:49:57.835Z,21.34
2018-05-13T19:52:25.957Z,21.34
2018-05-13T19:54:54.122Z,21.27
2018-05-13T19:57:22.254Z,21.32
2018-05-13T19:59:50.406Z,21.30
2018-05-13T20:02:18.574Z,21.28
2018-05-13T20:04:46.688Z,21.29
2018-05-13T20:07:14.821Z,21.24
2018-05-13T20:09:43.918Z,21.22
2018-05-13T20:12:12.011Z,21.14
2018-05-13T20:14:40.244Z,21.17
2018-05-13T20:17:08.878Z,21.20
2018-05-13T20:19:37.020Z,21.10
2018-05-13T20:22:05.158Z,21.03
2018-05-13T20:24:33.301Z,21.05
2018-05-13T20:27:01.445Z,20.92
2018-05-13T20:29:29.566Z,20.86
2018-05-13T20:31:57.694Z,20.86
2018-05-13T20:34:25.835Z,20.87
2018-05-13T20:36:53.956Z,20.78
2018-05-13T20:39:22.082Z,20.83
2018-05-13T20:41:50.229Z,20.76
2018-05-13T20:44:18.421Z,20.66
2018-05-13T20:46:46.529Z,20.61
2018-05-13T20:49:14.653Z,20.56
2018-05-13T20:51:42.797Z,20.55
2018-05-13T20:54:10.932Z,20.58
2018-05-13T20:56:39.068Z,20.53
2018-05-13T20:59:07.229Z,20.44
2018-05-13T21:01:35.333Z,20.41
2018-05-13T21:04:03.468Z,20.33
2018-05-13T21:06:31.596Z,20.28
2018-05-13T21:08:59.720Z,20.18
2018-05-13T21:11:27.862Z,20.11
2018-05-13T21:13:56.027Z,19.99
2018-05-13T21:16:24.156Z,19.95
2018-05-13T21:18:52.289Z,19.91
2018-05-13T21:21:20.441Z,19.85
2018-05-13T21:23:48.571Z,19.77
2018-05-13T21:26:16.714Z,19.69
2018-05-13T21:28:45.175Z,19.71
2018-05-13T21:31:13.327Z,19.62
2018-05-13T21:33:41.471Z,19.54
2018-05-13T21:36:09.617Z,19.46
2018-05-13T21:38:37.758Z,19.43
2018-05-13T21:41:05.945Z,19.35
2018-05-13T21:43:34.089Z,19.30
2018-05-13T21:46:02.230Z,19.25
2018-05-13T21:48:31.668Z,19.21
2018-05-13T21:50:59.794Z,19.19
2018-05-13T21:53:27.919Z,19.12
2018-05-13T21:55:56.821Z,19.02
2018-05-13T21:58:24.957Z,18.97
2018-05-13T22:00:53.074Z,19.02
2018-05-13T22:03:21.194Z,19.03
2018-05-13T22:05:49.314Z,19.02
2018-05-13T22:08:17.438Z,18.99
2018-05-13T22:10:45.567Z,19.02
2018-05-13T22:13:13.706Z,19.07
2018-05-13T22:15:41.854Z,19.06
2018-05-13T22:18:09.979Z,19.09
2018-05-13T22:20:38.130Z,19.14
2018-05-13T22:23:06.363Z,19.14
2018-05-13T22:25:34.545Z,19.11
2018-05-13T22:28:02.835Z,19.05
2018-05-13T22:30:31.004Z,19.01
2018-05-13T22:32:59.196Z,18.96
2018-05-13T22:35:36.154Z,18.87
2018-05-13T22:38:04.286Z,18.79
2018-05-13T22:40:32.412Z,18.72
2018-05-13T22:43:00.528Z,18.68
2018-05-13T22:45:28.682Z,18.66
2018-05-13T22:47:56.797Z,18.62
2018-05-13T22:50:25.079Z,18.58
2018-05-13T22:52:53.217Z,18.54
2018-05-13T22:55:21.329Z,18.50
2018-05-13T22:57:49.562Z,18.44
2018-05-13T23:00:17.845Z,18.41
2018-05-13T23:02:46.022Z,18.37
2018-05-13T23:05:14.148Z,18.36
2018-05-13T23:07:42.331Z,18.34
2018-05-13T23:10:10.407Z,18.34
2018-05-13T23:12:38.568Z,18.33
2018-05-13T23:15:06.780Z,18.31
2018-05-13T23:17:34.892Z,18.27
2018-05-13T23:20:03.048Z,18.22
2018-05-13T23:22:35.110Z,18.23
2018-05-13T23:25:03.253Z,18.23
2018-05-13T23:27:31.366Z,18.24
2018-05-13T23:29:59.515Z,18.23
2018-05-13T23:32:28.454Z,18.20
2018-05-13T23:34:56.582Z,18.17
2018-05-13T23:37:24.718Z,18.20
2018-05-13T23:39:52.838Z,18.19
2018-05-13T23:42:20.962Z,18.19
2018-05-13T23:44:49.099Z,18.18
2018-05-13T23:47:17.226Z,18.10
2018-05-13T23:49:45.379Z,18.04
2018-05-13T23:52:13.502Z,17.97
2018-05-13T23:54:41.632Z,17.94
2018-05-13T23:57:09.818Z,17.91
2018-05-13T23:59:38.742Z,17.86
